sensor_id;sensor_type;location;lat;lon;timestamp;pressure;altitude;pressure_sealevel;temperature;humidity
62333;BME280;48624;49.812;8.562;2023-01-27T00:02:15;101048.44;;;-0.10;100.00
62333;BME280;48624;49.812;8.562;2023-01-27T00:04:41;101044.84;;;0.00;100.00
62333;BME280;48624;49.812;8.562;2023-01-27T00:07:06;101046.31;;;-0.45;100.00
62333;BME280;48624;49.812;8.562;2023-01-27T00:09:31;101051.16;;;-0.18;100.00
62333;BME280;48624;49.812;8.562;2023-01-27T00:11:57;101052.94;;;-0.20;100.00
62333;BME280;48624;49.812;8.562;2023-01-27T00:14:41;101055.59;;;-0.23;100.00
62333;BME280;48624;49.812;8.562;2023-01-27T00:17:06;101045.06;;;-0.16;100.00
62333;BME280;48624;49.812;8.562;2023-01-27T00:19:31;101039.97;;;-0.25;100.00
62333;BME280;48624;49.812;8.562;2023-01-27T00:21:57;101044.09;;;-0.10;100.00
62333;BME280;48624;49.812;8.562;2023-01-27T00:24:41;101043.22;;;-0.10;100.00
62333;BME280;48624;49.812;8.562;2023-01-27T00:27:08;101041.50;;;-0.11;100.00
62333;BME280;48624;49.812;8.562;2023-01-27T00:29:37;101039.72;;;-0.06;100.00
62333;BME280;48624;49.812;8.562;2023-01-27T00:32:03;101029.31;;;-0.06;100.00
62333;BME280;48624;49.812;8.562;2023-01-27T00:34:47;101030.19;;;-0.09;100.00
62333;BME280;48624;49.812;8.562;2023-01-27T00:37:12;101029.22;;;-0.02;100.00
62333;BME280;48624;49.812;8.562;2023-01-27T00:39:38;101024.88;;;-0.01;100.00
62333;BME280;48624;49.812;8.562;2023-01-27T00:42:04;101025.69;;;0.03;100.00
62333;BME280;48624;49.812;8.562;2023-01-27T00:44:29;101024.78;;;0.05;100.00
62333;BME280;48624;49.812;8.562;2023-01-27T00:46:54;101029.16;;;0.03;100.00
62333;BME280;48624;49.812;8.562;2023-01-27T00:49:19;101029.25;;;-0.03;100.00
62333;BME280;48624;49.812;8.562;2023-01-27T00:51:45;101025.53;;;0.12;100.00
62333;BME280;48624;49.812;8.562;2023-01-27T00:54:10;101022.13;;;0.08;100.00
62333;BME280;48624;49.812;8.562;2023-01-27T00:56:36;101028.13;;;0.13;100.00
62333;BME280;48624;49.812;8.562;2023-01-27T00:59:02;101025.34;;;0.26;100.00
62333;BME280;48624;49.812;8.562;2023-01-27T01:01:28;101030.75;;;0.12;100.00
62333;BME280;48624;49.812;8.562;2023-01-27T01:03:54;101029.97;;;0.07;100.00
62333;BME280;48624;49.812;8.562;2023-01-27T01:06:20;101030.91;;;0.03;100.00
62333;BME280;48624;49.812;8.562;2023-01-27T01:08:45;101036.78;;;0.16;100.00
62333;BME280;48624;49.812;8.562;2023-01-27T01:11:15;101029.84;;;0.15;100.00
62333;BME280;48624;49.812;8.562;2023-01-27T01:13:42;101037.53;;;0.24;100.00
62333;BME280;48624;49.812;8.562;2023-01-27T01:16:15;101039.31;;;0.20;100.00
62333;BME280;48624;49.812;8.562;2023-01-27T01:18:41;101036.81;;;0.14;100.00
62333;BME280;48624;49.812;8.562;2023-01-27T01:21:08;101040.97;;;0.27;100.00
62333;BME280;48624;49.812;8.562;2023-01-27T01:23:37;101042.69;;;0.27;100.00
62333;BME280;48624;49.812;8.562;2023-01-27T01:26:03;101038.28;;;0.32;100.00
62333;BME280;48624;49.812;8.562;2023-01-27T01:28:29;101039.06;;;0.37;100.00
62333;BME280;48624;49.812;8.562;2023-01-27T01:30:54;101049.53;;;0.36;100.00
62333;BME280;48624;49.812;8.562;2023-01-27T01:33:19;101041.84;;;0.26;100.00
62333;BME280;48624;49.812;8.562;2023-01-27T01:35:45;101042.94;;;0.10;100.00
62333;BME280;48624;49.812;8.562;2023-01-27T01:38:11;101035.22;;;0.05;100.00
62333;BME280;48624;49.812;8.562;2023-01-27T01:40:40;101043.34;;;-0.17;100.00
62333;BME280;48624;49.812;8.562;2023-01-27T01:43:16;101042.94;;;-0.53;100.00
62333;BME280;48624;49.812;8.562;2023-01-27T01:45:50;101044.34;;;-0.29;100.00
62333;BME280;48624;49.812;8.562;2023-01-27T01:48:21;101051.91;;;-0.10;100.00
62333;BME280;48624;49.812;8.562;2023-01-27T01:50:56;101037.25;;;-0.16;100.00
62333;BME280;48624;49.812;8.562;2023-01-27T01:53:26;101039.03;;;-0.21;100.00
62333;BME280;48624;49.812;8.562;2023-01-27T01:55:55;101036.81;;;-0.50;100.00
62333;BME280;48624;49.812;8.562;2023-01-27T01:58:22;101036.84;;;-0.52;100.00
62333;BME280;48624;49.812;8.562;2023-01-27T02:00:48;101038.25;;;-0.26;100.00
62333;BME280;48624;49.812;8.562;2023-01-27T02:03:13;101024.66;;;-0.50;100.00
62333;BME280;48624;49.812;8.562;2023-01-27T02:05:41;101033.28;;;-0.46;100.00
62333;BME280;48624;49.812;8.562;2023-01-27T02:08:22;101033.22;;;-0.40;100.00
62333;BME280;48624;49.812;8.562;2023-01-27T02:10:50;101032.56;;;-0.58;100.00
62333;BME280;48624;49.812;8.562;2023-01-27T02:13:18;101027.31;;;-0.53;100.00
62333;BME280;48624;49.812;8.562;2023-01-27T02:15:43;101022.81;;;-0.42;100.00
62333;BME280;48624;49.812;8.562;2023-01-27T02:18:09;101025.59;;;-0.54;100.00
62333;BME280;48624;49.812;8.562;2023-01-27T02:20:42;101022.88;;;-0.45;100.00
62333;BME280;48624;49.812;8.562;2023-01-27T02:28:44;101020.09;;;-0.34;100.00
62333;BME280;48624;49.812;8.562;2023-01-27T02:31:09;101014.00;;;-0.31;100.00
62333;BME280;48624;49.812;8.562;2023-01-27T02:33:35;101020.38;;;-0.56;100.00
62333;BME280;48624;49.812;8.562;2023-01-27T02:36:10;101020.25;;;-0.45;100.00
62333;BME280;48624;49.812;8.562;2023-01-27T02:41:22;101025.47;;;-0.46;100.00
62333;BME280;48624;49.812;8.562;2023-01-27T02:43:50;101032.63;;;-0.64;100.00
62333;BME280;48624;49.812;8.562;2023-01-27T02:46:16;101028.13;;;-0.51;100.00
62333;BME280;48624;49.812;8.562;2023-01-27T02:48:41;101026.25;;;-0.39;100.00
62333;BME280;48624;49.812;8.562;2023-01-27T02:51:07;101029.97;;;-0.58;100.00
62333;BME280;48624;49.812;8.562;2023-01-27T02:53:32;101032.56;;;-0.59;100.00
62333;BME280;48624;49.812;8.562;2023-01-27T02:55:58;101030.63;;;-0.42;100.00
62333;BME280;48624;49.812;8.562;2023-01-27T02:58:23;101035.44;;;-0.81;100.00
62333;BME280;48624;49.812;8.562;2023-01-27T03:00:48;101037.59;;;-0.44;100.00
62333;BME280;48624;49.812;8.562;2023-01-27T03:03:13;101035.00;;;-0.44;100.00
62333;BME280;48624;49.812;8.562;2023-01-27T03:05:39;101038.31;;;-0.31;100.00
62333;BME280;48624;49.812;8.562;2023-01-27T03:08:05;101041.94;;;-0.44;100.00
62333;BME280;48624;49.812;8.562;2023-01-27T03:10:30;101037.66;;;-0.48;100.00
62333;BME280;48624;49.812;8.562;2023-01-27T03:12:56;101046.97;;;-0.29;100.00
62333;BME280;48624;49.812;8.562;2023-01-27T03:15:21;101047.88;;;-0.33;100.00
62333;BME280;48624;49.812;8.562;2023-01-27T03:18:06;101042.75;;;-0.40;100.00
62333;BME280;48624;49.812;8.562;2023-01-27T03:20:44;101046.25;;;-0.42;100.00
62333;BME280;48624;49.812;8.562;2023-01-27T03:23:10;101048.75;;;-0.34;100.00
62333;BME280;48624;49.812;8.562;2023-01-27T03:25:39;101037.38;;;-0.25;100.00
62333;BME280;48624;49.812;8.562;2023-01-27T03:28:05;101044.38;;;-0.30;100.00
62333;BME280;48624;49.812;8.562;2023-01-27T03:30:30;101044.81;;;-0.64;100.00
62333;BME280;48624;49.812;8.562;2023-01-27T03:32:55;101051.63;;;-0.56;100.00
62333;BME280;48624;49.812;8.562;2023-01-27T03:35:21;101042.75;;;-0.37;100.00
62333;BME280;48624;49.812;8.562;2023-01-27T03:37:47;101038.81;;;-0.74;100.00
62333;BME280;48624;49.812;8.562;2023-01-27T03:40:31;101040.59;;;-0.76;100.00
62333;BME280;48624;49.812;8.562;2023-01-27T03:43:15;101052.78;;;-0.80;100.00
62333;BME280;48624;49.812;8.562;2023-01-27T03:45:59;101045.28;;;-0.33;100.00
62333;BME280;48624;49.812;8.562;2023-01-27T03:48:47;101042.94;;;-0.54;100.00
62333;BME280;48624;49.812;8.562;2023-01-27T03:51:14;101045.63;;;-0.61;100.00
62333;BME280;48624;49.812;8.562;2023-01-27T03:53:39;101042.81;;;-0.44;100.00
62333;BME280;48624;49.812;8.562;2023-01-27T03:56:05;101054.06;;;-0.42;100.00
62333;BME280;48624;49.812;8.562;2023-01-27T03:58:33;101047.16;;;-0.44;100.00
62333;BME280;48624;49.812;8.562;2023-01-27T04:01:11;101051.63;;;-0.57;100.00
62333;BME280;48624;49.812;8.562;2023-01-27T04:03:37;101045.47;;;-0.48;100.00
62333;BME280;48624;49.812;8.562;2023-01-27T04:06:24;101055.72;;;-0.36;100.00
62333;BME280;48624;49.812;8.562;2023-01-27T04:09:10;101050.41;;;-0.26;100.00
62333;BME280;48624;49.812;8.562;2023-01-27T04:11:35;101051.41;;;-0.37;100.00
62333;BME280;48624;49.812;8.562;2023-01-27T04:14:21;101061.03;;;-0.45;100.00
62333;BME280;48624;49.812;8.562;2023-01-27T04:16:47;101064.31;;;-0.29;100.00
62333;BME280;48624;49.812;8.562;2023-01-27T04:19:12;101055.66;;;-0.30;100.00
62333;BME280;48624;49.812;8.562;2023-01-27T04:21:38;101052.91;;;-0.19;100.00
62333;BME280;48624;49.812;8.562;2023-01-27T04:24:04;101051.66;;;0.09;100.00
62333;BME280;48624;49.812;8.562;2023-01-27T04:26:33;101052.91;;;-0.19;100.00
62333;BME280;48624;49.812;8.562;2023-01-27T04:29:02;101051.22;;;-0.24;100.00
62333;BME280;48624;49.812;8.562;2023-01-27T04:31:28;101054.66;;;-0.19;100.00
62333;BME280;48624;49.812;8.562;2023-01-27T04:33:53;101058.91;;;-0.15;100.00
62333;BME280;48624;49.812;8.562;2023-01-27T04:36:19;101049.94;;;0.08;100.00
62333;BME280;48624;49.812;8.562;2023-01-27T04:38:44;101053.44;;;0.05;100.00
62333;BME280;48624;49.812;8.562;2023-01-27T04:41:09;101060.63;;;-0.12;100.00
62333;BME280;48624;49.812;8.562;2023-01-27T04:43:35;101073.75;;;-0.19;100.00
62333;BME280;48624;49.812;8.562;2023-01-27T04:46:00;101055.09;;;0.09;100.00
62333;BME280;48624;49.812;8.562;2023-01-27T04:48:25;101063.72;;;0.16;100.00
62333;BME280;48624;49.812;8.562;2023-01-27T04:50:50;101069.56;;;0.31;100.00
62333;BME280;48624;49.812;8.562;2023-01-27T04:53:16;101058.56;;;0.11;100.00
62333;BME280;48624;49.812;8.562;2023-01-27T04:55:46;101058.34;;;0.27;100.00
62333;BME280;48624;49.812;8.562;2023-01-27T04:58:12;101062.78;;;0.19;100.00
62333;BME280;48624;49.812;8.562;2023-01-27T05:00:38;101072.50;;;0.10;100.00
62333;BME280;48624;49.812;8.562;2023-01-27T05:03:03;101063.75;;;0.13;100.00
62333;BME280;48624;49.812;8.562;2023-01-27T05:05:31;101067.16;;;0.18;100.00
62333;BME280;48624;49.812;8.562;2023-01-27T05:08:01;101080.38;;;0.06;100.00
62333;BME280;48624;49.812;8.562;2023-01-27T05:10:27;101063.78;;;0.11;100.00
62333;BME280;48624;49.812;8.562;2023-01-27T05:12:52;101068.25;;;0.02;100.00
62333;BME280;48624;49.812;8.562;2023-01-27T05:15:17;101069.84;;;0.12;100.00
62333;BME280;48624;49.812;8.562;2023-01-27T05:17:42;101060.31;;;0.11;100.00
62333;BME280;48624;49.812;8.562;2023-01-27T05:20:08;101071.59;;;0.11;100.00
62333;BME280;48624;49.812;8.562;2023-01-27T05:22:33;101064.56;;;0.18;100.00
62333;BME280;48624;49.812;8.562;2023-01-27T05:24:59;101068.72;;;0.30;100.00
62333;BME280;48624;49.812;8.562;2023-01-27T05:27:24;101067.91;;;0.26;100.00
62333;BME280;48624;49.812;8.562;2023-01-27T05:29:49;101074.91;;;0.23;100.00
62333;BME280;48624;49.812;8.562;2023-01-27T05:32:14;101077.31;;;0.37;100.00
62333;BME280;48624;49.812;8.562;2023-01-27T05:34:41;101082.09;;;0.07;100.00
62333;BME280;48624;49.812;8.562;2023-01-27T05:37:06;101087.38;;;0.01;100.00
62333;BME280;48624;49.812;8.562;2023-01-27T05:39:32;101075.25;;;-0.02;100.00
62333;BME280;48624;49.812;8.562;2023-01-27T05:41:57;101087.09;;;0.21;100.00
62333;BME280;48624;49.812;8.562;2023-01-27T05:44:22;101088.00;;;0.20;100.00
62333;BME280;48624;49.812;8.562;2023-01-27T05:46:47;101092.00;;;0.43;100.00
62333;BME280;48624;49.812;8.562;2023-01-27T05:49:13;101093.91;;;0.31;100.00
62333;BME280;48624;49.812;8.562;2023-01-27T05:51:39;101089.31;;;0.49;100.00
62333;BME280;48624;49.812;8.562;2023-01-27T05:54:05;101094.75;;;0.33;100.00
62333;BME280;48624;49.812;8.562;2023-01-27T05:56:31;101091.84;;;0.53;100.00
62333;BME280;48624;49.812;8.562;2023-01-27T05:58:57;101094.31;;;0.60;100.00
62333;BME280;48624;49.812;8.562;2023-01-27T06:01:25;101095.13;;;0.63;100.00
62333;BME280;48624;49.812;8.562;2023-01-27T06:03:51;101103.84;;;0.64;100.00
62333;BME280;48624;49.812;8.562;2023-01-27T06:06:19;101104.59;;;0.69;100.00
62333;BME280;48624;49.812;8.562;2023-01-27T06:08:44;101101.53;;;0.45;100.00
62333;BME280;48624;49.812;8.562;2023-01-27T06:11:10;101103.22;;;0.48;100.00
62333;BME280;48624;49.812;8.562;2023-01-27T06:13:36;101110.38;;;0.32;100.00
62333;BME280;48624;49.812;8.562;2023-01-27T06:16:04;101099.53;;;0.61;100.00
62333;BME280;48624;49.812;8.562;2023-01-27T06:18:30;101108.66;;;0.32;100.00
62333;BME280;48624;49.812;8.562;2023-01-27T06:20:57;101108.38;;;0.51;100.00
62333;BME280;48624;49.812;8.562;2023-01-27T06:23:23;101104.22;;;0.37;100.00
62333;BME280;48624;49.812;8.562;2023-01-27T06:25:48;101107.63;;;0.44;100.00
62333;BME280;48624;49.812;8.562;2023-01-27T06:28:14;101104.72;;;0.63;100.00
62333;BME280;48624;49.812;8.562;2023-01-27T06:30:40;101117.03;;;0.54;100.00
62333;BME280;48624;49.812;8.562;2023-01-27T06:33:06;101106.59;;;0.54;100.00
62333;BME280;48624;49.812;8.562;2023-01-27T06:35:34;101111.13;;;0.43;100.00
62333;BME280;48624;49.812;8.562;2023-01-27T06:38:01;101107.00;;;0.25;100.00
62333;BME280;48624;49.812;8.562;2023-01-27T06:40:28;101114.88;;;0.22;100.00
62333;BME280;48624;49.812;8.562;2023-01-27T06:42:54;101113.25;;;0.15;100.00
62333;BME280;48624;49.812;8.562;2023-01-27T06:45:20;101110.25;;;0.43;100.00
62333;BME280;48624;49.812;8.562;2023-01-27T06:47:52;101124.22;;;0.38;100.00
62333;BME280;48624;49.812;8.562;2023-01-27T06:50:17;101125.13;;;0.34;100.00
62333;BME280;48624;49.812;8.562;2023-01-27T06:52:44;101123.88;;;0.60;100.00
62333;BME280;48624;49.812;8.562;2023-01-27T06:55:09;101127.84;;;0.26;100.00
62333;BME280;48624;49.812;8.562;2023-01-27T06:57:34;101133.44;;;0.61;100.00
62333;BME280;48624;49.812;8.562;2023-01-27T06:59:59;101134.66;;;0.35;100.00
62333;BME280;48624;49.812;8.562;2023-01-27T07:02:25;101133.50;;;0.57;100.00
62333;BME280;48624;49.812;8.562;2023-01-27T07:04:51;101136.06;;;0.60;100.00
62333;BME280;48624;49.812;8.562;2023-01-27T07:07:16;101136.50;;;0.88;100.00
62333;BME280;48624;49.812;8.562;2023-01-27T07:09:41;101133.34;;;0.66;100.00
62333;BME280;48624;49.812;8.562;2023-01-27T07:12:06;101143.97;;;0.53;100.00
62333;BME280;48624;49.812;8.562;2023-01-27T07:14:32;101142.13;;;0.60;100.00
62333;BME280;48624;49.812;8.562;2023-01-27T07:16:57;101142.06;;;0.65;100.00
62333;BME280;48624;49.812;8.562;2023-01-27T07:19:22;101140.97;;;0.80;100.00
62333;BME280;48624;49.812;8.562;2023-01-27T07:21:47;101151.94;;;0.43;100.00
62333;BME280;48624;49.812;8.562;2023-01-27T07:24:13;101150.56;;;0.78;99.90
62333;BME280;48624;49.812;8.562;2023-01-27T07:26:38;101157.13;;;0.46;100.00
62333;BME280;48624;49.812;8.562;2023-01-27T07:29:03;101154.81;;;0.83;100.00
62333;BME280;48624;49.812;8.562;2023-01-27T07:31:32;101152.31;;;0.77;99.69
62333;BME280;48624;49.812;8.562;2023-01-27T07:33:57;101161.91;;;0.75;97.85
62333;BME280;48624;49.812;8.562;2023-01-27T07:36:23;101162.56;;;0.88;98.28
62333;BME280;48624;49.812;8.562;2023-01-27T07:38:49;101167.28;;;0.64;99.37
62333;BME280;48624;49.812;8.562;2023-01-27T07:41:15;101171.91;;;0.45;100.00
62333;BME280;48624;49.812;8.562;2023-01-27T07:43:40;101180.97;;;0.79;99.74
62333;BME280;48624;49.812;8.562;2023-01-27T07:46:05;101182.72;;;0.78;100.00
62333;BME280;48624;49.812;8.562;2023-01-27T07:48:31;101180.91;;;0.83;100.00
62333;BME280;48624;49.812;8.562;2023-01-27T07:50:56;101172.00;;;0.97;98.48
62333;BME280;48624;49.812;8.562;2023-01-27T07:53:21;101179.19;;;0.82;99.80
62333;BME280;48624;49.812;8.562;2023-01-27T07:55:46;101181.06;;;0.73;100.00
62333;BME280;48624;49.812;8.562;2023-01-27T07:58:12;101178.31;;;0.83;100.00
62333;BME280;48624;49.812;8.562;2023-01-27T08:00:37;101178.16;;;0.93;100.00
62333;BME280;48624;49.812;8.562;2023-01-27T08:03:02;101186.69;;;1.03;100.00
62333;BME280;48624;49.812;8.562;2023-01-27T08:05:32;101198.69;;;1.13;99.57
62333;BME280;48624;49.812;8.562;2023-01-27T08:07:57;101187.41;;;1.13;99.29
62333;BME280;48624;49.812;8.562;2023-01-27T08:10:23;101183.09;;;1.10;99.36
62333;BME280;48624;49.812;8.562;2023-01-27T08:12:49;101194.28;;;1.18;99.17
62333;BME280;48624;49.812;8.562;2023-01-27T08:15:15;101191.06;;;1.01;99.83
62333;BME280;48624;49.812;8.562;2023-01-27T08:17:40;101198.38;;;1.33;99.83
62333;BME280;48624;49.812;8.562;2023-01-27T08:20:06;101193.25;;;1.27;99.24
62333;BME280;48624;49.812;8.562;2023-01-27T08:22:32;101187.75;;;0.91;100.00
62333;BME280;48624;49.812;8.562;2023-01-27T08:24:57;101186.53;;;1.12;100.00
62333;BME280;48624;49.812;8.562;2023-01-27T08:27:23;101186.28;;;1.26;100.00
62333;BME280;48624;49.812;8.562;2023-01-27T08:29:48;101185.31;;;1.33;99.81
62333;BME280;48624;49.812;8.562;2023-01-27T08:32:13;101190.69;;;1.24;100.00
62333;BME280;48624;49.812;8.562;2023-01-27T08:34:39;101197.03;;;1.09;100.00
62333;BME280;48624;49.812;8.562;2023-01-27T08:37:05;101196.81;;;1.21;100.00
62333;BME280;48624;49.812;8.562;2023-01-27T08:39:30;101198.94;;;1.51;99.42
62333;BME280;48624;49.812;8.562;2023-01-27T08:41:56;101197.31;;;1.44;98.89
62333;BME280;48624;49.812;8.562;2023-01-27T08:44:21;101200.72;;;1.47;98.46
62333;BME280;48624;49.812;8.562;2023-01-27T08:46:48;101212.66;;;1.62;98.62
62333;BME280;48624;49.812;8.562;2023-01-27T08:49:13;101215.66;;;1.39;98.69
62333;BME280;48624;49.812;8.562;2023-01-27T08:51:39;101219.81;;;1.52;99.31
62333;BME280;48624;49.812;8.562;2023-01-27T08:54:05;101221.78;;;1.40;97.99
62333;BME280;48624;49.812;8.562;2023-01-27T08:56:30;101226.91;;;1.44;98.00
62333;BME280;48624;49.812;8.562;2023-01-27T08:58:56;101227.50;;;1.59;97.86
62333;BME280;48624;49.812;8.562;2023-01-27T09:01:21;101232.50;;;1.73;98.41
62333;BME280;48624;49.812;8.562;2023-01-27T09:03:47;101231.75;;;1.64;97.21
62333;BME280;48624;49.812;8.562;2023-01-27T09:06:13;101222.69;;;1.35;98.07
62333;BME280;48624;49.812;8.562;2023-01-27T09:08:41;101230.50;;;1.38;98.99
62333;BME280;48624;49.812;8.562;2023-01-27T09:11:12;101228.00;;;1.31;99.14
62333;BME280;48624;49.812;8.562;2023-01-27T09:13:37;101227.16;;;1.29;99.74
62333;BME280;48624;49.812;8.562;2023-01-27T09:16:03;101239.75;;;1.02;100.00
62333;BME280;48624;49.812;8.562;2023-01-27T09:18:28;101230.66;;;1.28;100.00
62333;BME280;48624;49.812;8.562;2023-01-27T09:20:54;101233.19;;;1.32;100.00
62333;BME280;48624;49.812;8.562;2023-01-27T09:23:19;101244.59;;;1.28;100.00
62333;BME280;48624;49.812;8.562;2023-01-27T09:25:44;101243.81;;;1.21;100.00
62333;BME280;48624;49.812;8.562;2023-01-27T09:28:10;101245.38;;;1.32;100.00
62333;BME280;48624;49.812;8.562;2023-01-27T09:30:44;101246.03;;;1.46;100.00
62333;BME280;48624;49.812;8.562;2023-01-27T09:33:10;101247.00;;;1.39;100.00
62333;BME280;48624;49.812;8.562;2023-01-27T09:36:00;101242.97;;;1.19;100.00
62333;BME280;48624;49.812;8.562;2023-01-27T09:38:30;101253.69;;;1.02;100.00
62333;BME280;48624;49.812;8.562;2023-01-27T09:49:54;101254.16;;;1.28;100.00
62333;BME280;48624;49.812;8.562;2023-01-27T10:08:47;101252.38;;;1.82;100.00
62333;BME280;48624;49.812;8.562;2023-01-27T10:15:02;101248.47;;;1.56;100.00
62333;BME280;48624;49.812;8.562;2023-01-27T10:17:30;101244.75;;;1.69;100.00
62333;BME280;48624;49.812;8.562;2023-01-27T10:20:26;101249.41;;;2.00;100.00
62333;BME280;48624;49.812;8.562;2023-01-27T10:26:40;101252.69;;;2.12;100.00
62333;BME280;48624;49.812;8.562;2023-01-27T10:28:49;101243.91;;;2.14;100.00
62333;BME280;48624;49.812;8.562;2023-01-27T10:31:27;101240.31;;;2.20;100.00
62333;BME280;48624;49.812;8.562;2023-01-27T10:33:56;101239.53;;;2.15;100.00
62333;BME280;48624;49.812;8.562;2023-01-27T10:36:26;101240.22;;;2.25;100.00
62333;BME280;48624;49.812;8.562;2023-01-27T10:41:42;101234.25;;;2.59;97.36
62333;BME280;48624;49.812;8.562;2023-01-27T10:44:34;101237.22;;;2.43;98.68
62333;BME280;48624;49.812;8.562;2023-01-27T10:47:14;101233.13;;;2.31;97.98
62333;BME280;48624;49.812;8.562;2023-01-27T10:49:53;101229.09;;;2.56;95.54
62333;BME280;48624;49.812;8.562;2023-01-27T10:52:40;101221.25;;;2.57;97.02
62333;BME280;48624;49.812;8.562;2023-01-27T10:55:19;101224.31;;;2.75;95.95
62333;BME280;48624;49.812;8.562;2023-01-27T10:58:03;101219.41;;;2.99;94.05
62333;BME280;48624;49.812;8.562;2023-01-27T11:03:16;101207.13;;;3.01;91.01
62333;BME280;48624;49.812;8.562;2023-01-27T11:05:50;101203.13;;;3.24;92.67
62333;BME280;48624;49.812;8.562;2023-01-27T11:08:21;101202.59;;;3.44;89.19
62333;BME280;48624;49.812;8.562;2023-01-27T11:10:50;101211.59;;;2.97;90.19
62333;BME280;48624;49.812;8.562;2023-01-27T11:13:36;101211.88;;;2.85;92.04
62333;BME280;48624;49.812;8.562;2023-01-27T11:16:03;101212.59;;;2.54;94.84
62333;BME280;48624;49.812;8.562;2023-01-27T11:18:33;101216.59;;;2.29;94.80
62333;BME280;48624;49.812;8.562;2023-01-27T11:21:14;101216.09;;;2.53;93.99
62333;BME280;48624;49.812;8.562;2023-01-27T11:23:43;101216.75;;;2.21;96.82
62333;BME280;48624;49.812;8.562;2023-01-27T11:28:58;101215.34;;;2.46;92.15
62333;BME280;48624;49.812;8.562;2023-01-27T11:34:30;101219.91;;;2.38;94.72
62333;BME280;48624;49.812;8.562;2023-01-27T11:36:57;101215.16;;;2.55;94.56
62333;BME280;48624;49.812;8.562;2023-01-27T11:39:23;101213.09;;;2.70;93.48
62333;BME280;48624;49.812;8.562;2023-01-27T11:41:52;101215.53;;;2.77;93.14
62333;BME280;48624;49.812;8.562;2023-01-27T11:44:23;101213.09;;;2.70;93.61
62333;BME280;48624;49.812;8.562;2023-01-27T11:46:51;101204.84;;;3.25;91.01
62333;BME280;48624;49.812;8.562;2023-01-27T11:49:36;101209.19;;;3.24;91.45
62333;BME280;48624;49.812;8.562;2023-01-27T11:52:32;101210.75;;;3.66;88.77
62333;BME280;48624;49.812;8.562;2023-01-27T11:55:04;101206.06;;;3.10;91.93
62333;BME280;48624;49.812;8.562;2023-01-27T11:57:30;101204.81;;;2.88;92.79
62333;BME280;48624;49.812;8.562;2023-01-27T11:59:59;101205.66;;;3.27;91.87
62333;BME280;48624;49.812;8.562;2023-01-27T12:02:34;101199.47;;;3.29;90.35
62333;BME280;48624;49.812;8.562;2023-01-27T12:05:05;101207.09;;;3.39;90.79
62333;BME280;48624;49.812;8.562;2023-01-27T12:10:35;101198.41;;;3.37;89.16
62333;BME280;48624;49.812;8.562;2023-01-27T12:13:15;101198.09;;;3.14;90.49
62333;BME280;48624;49.812;8.562;2023-01-27T12:15:51;101200.50;;;3.24;89.41
62333;BME280;48624;49.812;8.562;2023-01-27T12:18:18;101189.97;;;2.89;91.23
62333;BME280;48624;49.812;8.562;2023-01-27T12:20:45;101195.53;;;3.11;90.97
62333;BME280;48624;49.812;8.562;2023-01-27T12:23:18;101183.31;;;3.46;91.23
62333;BME280;48624;49.812;8.562;2023-01-27T12:25:55;101191.28;;;3.43;84.84
62333;BME280;48624;49.812;8.562;2023-01-27T12:28:30;101185.41;;;3.67;85.66
62333;BME280;48624;49.812;8.562;2023-01-27T12:31:05;101187.19;;;2.97;88.71
62333;BME280;48624;49.812;8.562;2023-01-27T12:33:32;101180.00;;;3.05;89.64
62333;BME280;48624;49.812;8.562;2023-01-27T12:35:59;101190.94;;;3.56;88.14
62333;BME280;48624;49.812;8.562;2023-01-27T12:38:32;101180.44;;;3.56;86.17
62333;BME280;48624;49.812;8.562;2023-01-27T12:41:04;101185.56;;;3.60;86.83
62333;BME280;48624;49.812;8.562;2023-01-27T12:43:31;101182.38;;;3.49;86.23
62333;BME280;48624;49.812;8.562;2023-01-27T12:48:47;101178.78;;;3.18;88.38
62333;BME280;48624;49.812;8.562;2023-01-27T12:51:18;101174.78;;;3.05;89.23
62333;BME280;48624;49.812;8.562;2023-01-27T12:53:43;101176.28;;;3.49;87.55
62333;BME280;48624;49.812;8.562;2023-01-27T12:56:12;101176.38;;;3.11;87.40
62333;BME280;48624;49.812;8.562;2023-01-27T12:58:40;101175.50;;;3.45;86.61
62333;BME280;48624;49.812;8.562;2023-01-27T13:01:29;101180.47;;;3.21;87.28
62333;BME280;48624;49.812;8.562;2023-01-27T13:07:05;101170.34;;;3.42;87.97
62333;BME280;48624;49.812;8.562;2023-01-27T13:11:57;101169.06;;;3.57;86.92
62333;BME280;48624;49.812;8.562;2023-01-27T13:14:23;101171.69;;;3.88;85.97
62333;BME280;48624;49.812;8.562;2023-01-27T13:16:55;101158.72;;;3.52;87.91
62333;BME280;48624;49.812;8.562;2023-01-27T13:19:36;101177.97;;;3.50;87.95
62333;BME280;48624;49.812;8.562;2023-01-27T13:22:03;101165.00;;;3.78;87.97
62333;BME280;48624;49.812;8.562;2023-01-27T13:24:33;101163.72;;;3.60;86.08
62333;BME280;48624;49.812;8.562;2023-01-27T13:27:03;101174.03;;;3.68;85.58
62333;BME280;48624;49.812;8.562;2023-01-27T13:29:33;101167.97;;;3.66;87.55
62333;BME280;48624;49.812;8.562;2023-01-27T13:32:17;101174.69;;;3.43;87.37
62333;BME280;48624;49.812;8.562;2023-01-27T13:35:18;101173.16;;;3.99;84.70
62333;BME280;48624;49.812;8.562;2023-01-27T13:38:23;101176.34;;;3.79;84.90
62333;BME280;48624;49.812;8.562;2023-01-27T13:40:55;101179.66;;;3.52;83.50
62333;BME280;48624;49.812;8.562;2023-01-27T13:43:35;101171.28;;;3.72;84.29
62333;BME280;48624;49.812;8.562;2023-01-27T13:46:30;101180.31;;;3.94;83.53
62333;BME280;48624;49.812;8.562;2023-01-27T13:49:00;101177.03;;;3.54;84.08
62333;BME280;48624;49.812;8.562;2023-01-27T13:51:29;101176.81;;;3.93;83.36
62333;BME280;48624;49.812;8.562;2023-01-27T13:53:59;101184.81;;;3.88;85.06
62333;BME280;48624;49.812;8.562;2023-01-27T14:05:40;101175.63;;;3.73;82.14
62333;BME280;48624;49.812;8.562;2023-01-27T14:18:45;101195.91;;;3.67;83.32
62333;BME280;48624;49.812;8.562;2023-01-27T14:21:38;101195.19;;;3.60;82.01
62333;BME280;48624;49.812;8.562;2023-01-27T14:24:33;101190.94;;;3.89;81.02